Terminal Aerodrome Forecast
Issued by NWS

Home | Current Version | Previous Version | Text Only | Print | Product List | Glossary On
Versions: 1 2 3 4 5 6 7 8 9 10 11 12
000
FTUS44 KLIX 282300
TAFGPT
TAF
KGPT 282328Z 2900/2924 29007KT P6SM VCSH SCT040 SCT250
     FM290200 29005KT P6SM FEW050 SCT250
     FM291400 32006KT P6SM FEW045 SCT250=

USA.gov is the U.S. government's official web portal to all federal, state and local government web resources and services.